sensor_id;sensor_type;location;lat;lon;timestamp;P1;durP1;ratioP1;P2;durP2;ratioP2
44434;SDS011;30138;20.964;105.830;2024-02-23T00:00:39;151.35;;;88.80;;
44434;SDS011;30138;20.964;105.830;2024-02-23T00:05:46;158.73;;;93.18;;
44434;SDS011;30138;20.964;105.830;2024-02-23T00:10:52;150.55;;;90.05;;
44434;SDS011;30138;20.964;105.830;2024-02-23T00:16:01;157.10;;;90.80;;
44434;SDS011;30138;20.964;105.830;2024-02-23T00:21:08;161.15;;;90.63;;
44434;SDS011;30138;20.964;105.830;2024-02-23T00:26:15;154.02;;;88.35;;
44434;SDS011;30138;20.964;105.830;2024-02-23T00:31:23;153.32;;;89.35;;
44434;SDS011;30138;20.964;105.830;2024-02-23T00:36:30;146.30;;;88.25;;
44434;SDS011;30138;20.964;105.830;2024-02-23T00:41:36;161.40;;;90.97;;
44434;SDS011;30138;20.964;105.830;2024-02-23T00:46:45;148.52;;;88.15;;
44434;SDS011;30138;20.964;105.830;2024-02-23T00:51:52;157.68;;;90.63;;
44434;SDS011;30138;20.964;105.830;2024-02-23T00:56:59;149.85;;;87.82;;
44434;SDS011;30138;20.964;105.830;2024-02-23T01:02:07;146.85;;;88.70;;
44434;SDS011;30138;20.964;105.830;2024-02-23T01:07:14;151.88;;;87.47;;
44434;SDS011;30138;20.964;105.830;2024-02-23T01:12:20;145.65;;;86.55;;
44434;SDS011;30138;20.964;105.830;2024-02-23T01:17:29;154.77;;;90.28;;
44434;SDS011;30138;20.964;105.830;2024-02-23T01:22:37;150.93;;;88.15;;
44434;SDS011;30138;20.964;105.830;2024-02-23T01:27:44;142.13;;;82.53;;
44434;SDS011;30138;20.964;105.830;2024-02-23T01:32:54;139.27;;;82.10;;
44434;SDS011;30138;20.964;105.830;2024-02-23T01:38:00;137.15;;;81.07;;
44434;SDS011;30138;20.964;105.830;2024-02-23T01:43:07;148.95;;;84.15;;
44434;SDS011;30138;20.964;105.830;2024-02-23T01:48:15;138.77;;;83.10;;
44434;SDS011;30138;20.964;105.830;2024-02-23T01:53:23;134.25;;;80.20;;
44434;SDS011;30138;20.964;105.830;2024-02-23T01:58:31;146.57;;;84.53;;
44434;SDS011;30138;20.964;105.830;2024-02-23T02:03:41;136.95;;;78.72;;
44434;SDS011;30138;20.964;105.830;2024-02-23T02:08:49;130.82;;;74.18;;
44434;SDS011;30138;20.964;105.830;2024-02-23T02:13:56;129.27;;;78.57;;
44434;SDS011;30138;20.964;105.830;2024-02-23T02:19:05;126.97;;;77.53;;
44434;SDS011;30138;20.964;105.830;2024-02-23T02:24:12;134.60;;;80.22;;
44434;SDS011;30138;20.964;105.830;2024-02-23T02:29:18;123.65;;;77.68;;
44434;SDS011;30138;20.964;105.830;2024-02-23T02:34:28;124.55;;;77.25;;
44434;SDS011;30138;20.964;105.830;2024-02-23T02:39:35;137.20;;;79.40;;
44434;SDS011;30138;20.964;105.830;2024-02-23T02:44:42;136.15;;;79.03;;
44434;SDS011;30138;20.964;105.830;2024-02-23T02:49:51;130.23;;;76.28;;
44434;SDS011;30138;20.964;105.830;2024-02-23T02:54:58;131.70;;;79.53;;
44434;SDS011;30138;20.964;105.830;2024-02-23T03:00:09;124.93;;;75.95;;
44434;SDS011;30138;20.964;105.830;2024-02-23T03:05:19;117.78;;;72.43;;
44434;SDS011;30138;20.964;105.830;2024-02-23T03:10:26;120.43;;;74.78;;
44434;SDS011;30138;20.964;105.830;2024-02-23T03:15:33;121.60;;;72.70;;
44434;SDS011;30138;20.964;105.830;2024-02-23T03:20:41;119.05;;;72.70;;
44434;SDS011;30138;20.964;105.830;2024-02-23T03:25:48;113.65;;;69.65;;
44434;SDS011;30138;20.964;105.830;2024-02-23T03:30:55;105.72;;;69.30;;
44434;SDS011;30138;20.964;105.830;2024-02-23T03:36:04;107.80;;;66.97;;
44434;SDS011;30138;20.964;105.830;2024-02-23T03:41:11;108.53;;;66.60;;
44434;SDS011;30138;20.964;105.830;2024-02-23T03:46:18;106.05;;;65.25;;
44434;SDS011;30138;20.964;105.830;2024-02-23T03:51:27;103.68;;;67.28;;
44434;SDS011;30138;20.964;105.830;2024-02-23T03:56:38;105.18;;;67.78;;
44434;SDS011;30138;20.964;105.830;2024-02-23T04:01:44;104.38;;;67.05;;
44434;SDS011;30138;20.964;105.830;2024-02-23T04:06:52;108.97;;;70.35;;
44434;SDS011;30138;20.964;105.830;2024-02-23T04:11:59;100.18;;;68.30;;
44434;SDS011;30138;20.964;105.830;2024-02-23T04:17:07;106.80;;;69.53;;
44434;SDS011;30138;20.964;105.830;2024-02-23T04:22:16;109.53;;;69.55;;
44434;SDS011;30138;20.964;105.830;2024-02-23T04:27:23;110.75;;;69.70;;
44434;SDS011;30138;20.964;105.830;2024-02-23T04:32:30;109.03;;;70.57;;
44434;SDS011;30138;20.964;105.830;2024-02-23T04:37:38;99.05;;;65.18;;
44434;SDS011;30138;20.964;105.830;2024-02-23T04:42:48;100.45;;;62.78;;
44434;SDS011;30138;20.964;105.830;2024-02-23T04:47:55;93.63;;;60.17;;
44434;SDS011;30138;20.964;105.830;2024-02-23T04:53:05;94.00;;;60.03;;
44434;SDS011;30138;20.964;105.830;2024-02-23T04:58:12;87.68;;;56.80;;
44434;SDS011;30138;20.964;105.830;2024-02-23T05:03:19;86.88;;;58.10;;
44434;SDS011;30138;20.964;105.830;2024-02-23T05:08:27;95.57;;;59.00;;
44434;SDS011;30138;20.964;105.830;2024-02-23T05:13:34;89.45;;;57.83;;
44434;SDS011;30138;20.964;105.830;2024-02-23T05:18:43;91.00;;;58.55;;
44434;SDS011;30138;20.964;105.830;2024-02-23T05:23:51;90.63;;;57.22;;
44434;SDS011;30138;20.964;105.830;2024-02-23T05:28:58;90.68;;;55.30;;
44434;SDS011;30138;20.964;105.830;2024-02-23T05:34:05;88.47;;;55.78;;
44434;SDS011;30138;20.964;105.830;2024-02-23T05:39:14;91.53;;;56.10;;
44434;SDS011;30138;20.964;105.830;2024-02-23T05:44:21;90.75;;;55.83;;
44434;SDS011;30138;20.964;105.830;2024-02-23T05:49:27;97.32;;;57.38;;
44434;SDS011;30138;20.964;105.830;2024-02-23T05:54:38;100.07;;;57.72;;
44434;SDS011;30138;20.964;105.830;2024-02-23T05:59:45;104.43;;;59.65;;
44434;SDS011;30138;20.964;105.830;2024-02-23T06:04:52;104.38;;;58.17;;
44434;SDS011;30138;20.964;105.830;2024-02-23T06:10:01;114.50;;;60.80;;
44434;SDS011;30138;20.964;105.830;2024-02-23T06:15:09;128.38;;;64.15;;
44434;SDS011;30138;20.964;105.830;2024-02-23T06:20:16;143.13;;;68.55;;
44434;SDS011;30138;20.964;105.830;2024-02-23T06:25:25;138.32;;;68.40;;
44434;SDS011;30138;20.964;105.830;2024-02-23T06:30:33;131.50;;;64.10;;
44434;SDS011;30138;20.964;105.830;2024-02-23T06:35:39;123.70;;;62.20;;
44434;SDS011;30138;20.964;105.830;2024-02-23T06:40:47;126.85;;;63.75;;
44434;SDS011;30138;20.964;105.830;2024-02-23T06:45:56;123.23;;;60.60;;
44434;SDS011;30138;20.964;105.830;2024-02-23T06:51:03;117.20;;;58.00;;
44434;SDS011;30138;20.964;105.830;2024-02-23T06:56:12;115.63;;;56.85;;
44434;SDS011;30138;20.964;105.830;2024-02-23T07:01:20;113.53;;;56.53;;
44434;SDS011;30138;20.964;105.830;2024-02-23T07:06:26;103.88;;;51.53;;
44434;SDS011;30138;20.964;105.830;2024-02-23T07:11:35;106.15;;;52.55;;
44434;SDS011;30138;20.964;105.830;2024-02-23T07:16:43;96.32;;;49.22;;
44434;SDS011;30138;20.964;105.830;2024-02-23T07:21:50;97.10;;;49.58;;
44434;SDS011;30138;20.964;105.830;2024-02-23T07:27:00;88.20;;;46.90;;
44434;SDS011;30138;20.964;105.830;2024-02-23T07:32:06;87.90;;;46.20;;
44434;SDS011;30138;20.964;105.830;2024-02-23T07:37:14;83.30;;;45.33;;
44434;SDS011;30138;20.964;105.830;2024-02-23T07:42:23;77.28;;;43.75;;
44434;SDS011;30138;20.964;105.830;2024-02-23T07:47:30;72.97;;;43.45;;
44434;SDS011;30138;20.964;105.830;2024-02-23T07:52:36;68.05;;;41.63;;
44434;SDS011;30138;20.964;105.830;2024-02-23T07:57:45;70.47;;;40.38;;
44434;SDS011;30138;20.964;105.830;2024-02-23T08:02:53;66.70;;;40.53;;
44434;SDS011;30138;20.964;105.830;2024-02-23T08:08:01;60.58;;;39.65;;
44434;SDS011;30138;20.964;105.830;2024-02-23T08:13:10;65.20;;;39.75;;
44434;SDS011;30138;20.964;105.830;2024-02-23T08:18:16;57.30;;;37.95;;
44434;SDS011;30138;20.964;105.830;2024-02-23T08:23:24;51.40;;;38.25;;
44434;SDS011;30138;20.964;105.830;2024-02-23T08:28:33;53.20;;;37.45;;
44434;SDS011;30138;20.964;105.830;2024-02-23T08:33:39;55.95;;;37.28;;
44434;SDS011;30138;20.964;105.830;2024-02-23T08:38:46;56.30;;;38.58;;
44434;SDS011;30138;20.964;105.830;2024-02-23T08:43:54;56.92;;;40.50;;
44434;SDS011;30138;20.964;105.830;2024-02-23T08:49:01;54.65;;;41.95;;
44434;SDS011;30138;20.964;105.830;2024-02-23T08:54:07;53.80;;;41.05;;
44434;SDS011;30138;20.964;105.830;2024-02-23T08:59:16;58.55;;;43.17;;
44434;SDS011;30138;20.964;105.830;2024-02-23T09:04:23;61.65;;;44.15;;
44434;SDS011;30138;20.964;105.830;2024-02-23T09:09:30;59.28;;;43.78;;
44434;SDS011;30138;20.964;105.830;2024-02-23T09:14:38;58.30;;;45.30;;
44434;SDS011;30138;20.964;105.830;2024-02-23T09:19:44;68.28;;;46.53;;
44434;SDS011;30138;20.964;105.830;2024-02-23T09:24:52;60.65;;;45.72;;
44434;SDS011;30138;20.964;105.830;2024-02-23T09:30:00;67.15;;;49.03;;
44434;SDS011;30138;20.964;105.830;2024-02-23T09:35:09;65.00;;;48.63;;
44434;SDS011;30138;20.964;105.830;2024-02-23T09:40:17;65.55;;;47.88;;
44434;SDS011;30138;20.964;105.830;2024-02-23T09:45:27;64.35;;;49.95;;
44434;SDS011;30138;20.964;105.830;2024-02-23T09:50:33;64.10;;;48.97;;
44434;SDS011;30138;20.964;105.830;2024-02-23T09:55:42;67.60;;;51.20;;
44434;SDS011;30138;20.964;105.830;2024-02-23T10:00:52;64.53;;;50.33;;
44434;SDS011;30138;20.964;105.830;2024-02-23T10:05:59;67.78;;;49.60;;
44434;SDS011;30138;20.964;105.830;2024-02-23T10:11:06;69.45;;;51.90;;
44434;SDS011;30138;20.964;105.830;2024-02-23T10:16:15;69.07;;;52.40;;
44434;SDS011;30138;20.964;105.830;2024-02-23T10:21:23;76.32;;;54.00;;
44434;SDS011;30138;20.964;105.830;2024-02-23T10:26:30;68.53;;;52.75;;
44434;SDS011;30138;20.964;105.830;2024-02-23T10:31:39;69.20;;;52.75;;
44434;SDS011;30138;20.964;105.830;2024-02-23T10:36:47;70.82;;;51.97;;
44434;SDS011;30138;20.964;105.830;2024-02-23T10:41:56;73.97;;;55.30;;
44434;SDS011;30138;20.964;105.830;2024-02-23T10:47:08;69.72;;;53.80;;
44434;SDS011;30138;20.964;105.830;2024-02-23T10:52:16;75.60;;;57.40;;
44434;SDS011;30138;20.964;105.830;2024-02-23T10:57:24;72.25;;;56.97;;
44434;SDS011;30138;20.964;105.830;2024-02-23T11:02:32;79.95;;;58.15;;
44434;SDS011;30138;20.964;105.830;2024-02-23T11:07:46;75.53;;;56.75;;
44434;SDS011;30138;20.964;105.830;2024-02-23T11:12:57;76.88;;;58.13;;
44434;SDS011;30138;20.964;105.830;2024-02-23T11:18:06;81.93;;;59.08;;
44434;SDS011;30138;20.964;105.830;2024-02-23T11:23:27;80.03;;;59.58;;
44434;SDS011;30138;20.964;105.830;2024-02-23T11:28:47;82.47;;;60.00;;
44434;SDS011;30138;20.964;105.830;2024-02-23T11:33:57;88.57;;;62.75;;
44434;SDS011;30138;20.964;105.830;2024-02-23T11:39:04;82.85;;;62.15;;
44434;SDS011;30138;20.964;105.830;2024-02-23T11:44:14;83.75;;;62.75;;
44434;SDS011;30138;20.964;105.830;2024-02-23T11:49:22;82.03;;;60.20;;
44434;SDS011;30138;20.964;105.830;2024-02-23T11:54:33;77.10;;;56.85;;
44434;SDS011;30138;20.964;105.830;2024-02-23T11:59:40;79.82;;;56.40;;
44434;SDS011;30138;20.964;105.830;2024-02-23T12:04:50;73.47;;;55.13;;
44434;SDS011;30138;20.964;105.830;2024-02-23T12:09:57;74.15;;;54.13;;
44434;SDS011;30138;20.964;105.830;2024-02-23T12:15:06;70.45;;;51.60;;
44434;SDS011;30138;20.964;105.830;2024-02-23T12:20:15;73.38;;;52.58;;
44434;SDS011;30138;20.964;105.830;2024-02-23T12:25:23;70.70;;;51.53;;
44434;SDS011;30138;20.964;105.830;2024-02-23T12:30:31;70.95;;;51.08;;
44434;SDS011;30138;20.964;105.830;2024-02-23T12:35:39;69.93;;;50.58;;
44434;SDS011;30138;20.964;105.830;2024-02-23T12:40:47;67.80;;;49.42;;
44434;SDS011;30138;20.964;105.830;2024-02-23T12:45:54;64.65;;;46.63;;
44434;SDS011;30138;20.964;105.830;2024-02-23T12:51:06;62.40;;;45.10;;
44434;SDS011;30138;20.964;105.830;2024-02-23T12:56:13;60.55;;;43.75;;
44434;SDS011;30138;20.964;105.830;2024-02-23T13:01:20;63.58;;;44.63;;
44434;SDS011;30138;20.964;105.830;2024-02-23T13:06:29;59.95;;;43.42;;
44434;SDS011;30138;20.964;105.830;2024-02-23T13:11:35;60.05;;;43.10;;
44434;SDS011;30138;20.964;105.830;2024-02-23T13:16:43;58.92;;;42.50;;
44434;SDS011;30138;20.964;105.830;2024-02-23T13:21:52;55.05;;;40.75;;
44434;SDS011;30138;20.964;105.830;2024-02-23T13:27:02;56.72;;;41.63;;
44434;SDS011;30138;20.964;105.830;2024-02-23T13:32:08;56.15;;;40.95;;
44434;SDS011;30138;20.964;105.830;2024-02-23T13:37:18;52.20;;;40.08;;
44434;SDS011;30138;20.964;105.830;2024-02-23T13:42:28;55.30;;;40.88;;
44434;SDS011;30138;20.964;105.830;2024-02-23T13:47:35;52.63;;;38.65;;
44434;SDS011;30138;20.964;105.830;2024-02-23T13:52:44;54.30;;;39.05;;
44434;SDS011;30138;20.964;105.830;2024-02-23T13:57:50;49.85;;;37.50;;
44434;SDS011;30138;20.964;105.830;2024-02-23T14:02:57;53.00;;;37.70;;
44434;SDS011;30138;20.964;105.830;2024-02-23T14:08:07;49.85;;;37.72;;
44434;SDS011;30138;20.964;105.830;2024-02-23T14:13:14;48.83;;;36.60;;
44434;SDS011;30138;20.964;105.830;2024-02-23T14:18:21;47.70;;;35.53;;
44434;SDS011;30138;20.964;105.830;2024-02-23T14:23:30;48.42;;;35.78;;
44434;SDS011;30138;20.964;105.830;2024-02-23T14:28:37;49.42;;;36.40;;
44434;SDS011;30138;20.964;105.830;2024-02-23T14:33:45;51.45;;;36.28;;
44434;SDS011;30138;20.964;105.830;2024-02-23T14:38:54;48.55;;;35.72;;
44434;SDS011;30138;20.964;105.830;2024-02-23T14:44:00;49.70;;;35.78;;
44434;SDS011;30138;20.964;105.830;2024-02-23T14:49:07;49.40;;;35.58;;
44434;SDS011;30138;20.964;105.830;2024-02-23T14:54:15;44.90;;;34.75;;
44434;SDS011;30138;20.964;105.830;2024-02-23T14:59:22;45.20;;;34.03;;
44434;SDS011;30138;20.964;105.830;2024-02-23T15:04:28;45.83;;;33.33;;
44434;SDS011;30138;20.964;105.830;2024-02-23T15:09:37;45.00;;;32.58;;
44434;SDS011;30138;20.964;105.830;2024-02-23T15:14:44;45.72;;;32.10;;
44434;SDS011;30138;20.964;105.830;2024-02-23T15:19:51;44.40;;;33.28;;
44434;SDS011;30138;20.964;105.830;2024-02-23T15:25:00;47.50;;;33.55;;
44434;SDS011;30138;20.964;105.830;2024-02-23T15:30:08;45.03;;;31.80;;
44434;SDS011;30138;20.964;105.830;2024-02-23T15:35:14;46.50;;;31.30;;
44434;SDS011;30138;20.964;105.830;2024-02-23T15:40:23;45.67;;;31.85;;
44434;SDS011;30138;20.964;105.830;2024-02-23T15:45:29;45.63;;;32.50;;
44434;SDS011;30138;20.964;105.830;2024-02-23T15:50:35;47.47;;;34.40;;
44434;SDS011;30138;20.964;105.830;2024-02-23T15:55:44;45.47;;;32.00;;
44434;SDS011;30138;20.964;105.830;2024-02-23T16:00:50;42.28;;;31.05;;
44434;SDS011;30138;20.964;105.830;2024-02-23T16:05:58;47.13;;;31.77;;
44434;SDS011;30138;20.964;105.830;2024-02-23T16:11:06;40.20;;;30.17;;
44434;SDS011;30138;20.964;105.830;2024-02-23T16:16:16;41.30;;;29.23;;
44434;SDS011;30138;20.964;105.830;2024-02-23T16:21:23;41.83;;;28.63;;
44434;SDS011;30138;20.964;105.830;2024-02-23T16:26:32;40.85;;;29.27;;
44434;SDS011;30138;20.964;105.830;2024-02-23T16:31:40;41.73;;;29.83;;
44434;SDS011;30138;20.964;105.830;2024-02-23T16:36:47;37.92;;;28.50;;
44434;SDS011;30138;20.964;105.830;2024-02-23T16:41:56;37.45;;;26.15;;
44434;SDS011;30138;20.964;105.830;2024-02-23T16:47:02;34.85;;;27.08;;
44434;SDS011;30138;20.964;105.830;2024-02-23T16:52:09;39.95;;;25.83;;
44434;SDS011;30138;20.964;105.830;2024-02-23T16:57:17;35.88;;;25.65;;
44434;SDS011;30138;20.964;105.830;2024-02-23T17:02:24;33.47;;;25.52;;
44434;SDS011;30138;20.964;105.830;2024-02-23T17:07:31;33.17;;;24.70;;
44434;SDS011;30138;20.964;105.830;2024-02-23T17:12:40;34.30;;;25.40;;
44434;SDS011;30138;20.964;105.830;2024-02-23T17:17:49;33.40;;;24.90;;
44434;SDS011;30138;20.964;105.830;2024-02-23T17:22:56;33.35;;;23.83;;
44434;SDS011;30138;20.964;105.830;2024-02-23T17:28:07;34.25;;;23.40;;
44434;SDS011;30138;20.964;105.830;2024-02-23T17:33:14;33.13;;;22.60;;
44434;SDS011;30138;20.964;105.830;2024-02-23T17:38:21;28.10;;;21.23;;
44434;SDS011;30138;20.964;105.830;2024-02-23T17:43:31;28.90;;;21.63;;
44434;SDS011;30138;20.964;105.830;2024-02-23T17:48:38;29.30;;;21.27;;
44434;SDS011;30138;20.964;105.830;2024-02-23T17:53:46;27.30;;;20.83;;
44434;SDS011;30138;20.964;105.830;2024-02-23T17:58:54;29.48;;;20.10;;
44434;SDS011;30138;20.964;105.830;2024-02-23T18:04:01;25.90;;;19.95;;
44434;SDS011;30138;20.964;105.830;2024-02-23T18:09:08;27.38;;;19.77;;
44434;SDS011;30138;20.964;105.830;2024-02-23T18:14:17;25.33;;;19.90;;
44434;SDS011;30138;20.964;105.830;2024-02-23T18:19:24;24.83;;;18.98;;
44434;SDS011;30138;20.964;105.830;2024-02-23T18:24:30;23.50;;;18.00;;
44434;SDS011;30138;20.964;105.830;2024-02-23T18:29:38;23.42;;;17.88;;
44434;SDS011;30138;20.964;105.830;2024-02-23T18:34:46;23.58;;;18.42;;
44434;SDS011;30138;20.964;105.830;2024-02-23T18:39:52;24.25;;;18.08;;
44434;SDS011;30138;20.964;105.830;2024-02-23T18:45:02;22.25;;;16.88;;
44434;SDS011;30138;20.964;105.830;2024-02-23T18:50:10;21.48;;;17.15;;
44434;SDS011;30138;20.964;105.830;2024-02-23T18:55:16;20.60;;;17.17;;
44434;SDS011;30138;20.964;105.830;2024-02-23T19:00:25;21.70;;;15.88;;
44434;SDS011;30138;20.964;105.830;2024-02-23T19:05:32;21.25;;;16.55;;
44434;SDS011;30138;20.964;105.830;2024-02-23T19:10:39;18.92;;;15.52;;
44434;SDS011;30138;20.964;105.830;2024-02-23T19:15:49;17.98;;;14.98;;
44434;SDS011;30138;20.964;105.830;2024-02-23T19:20:55;19.13;;;15.88;;
44434;SDS011;30138;20.964;105.830;2024-02-23T19:26:02;19.00;;;15.38;;
44434;SDS011;30138;20.964;105.830;2024-02-23T19:31:12;18.45;;;14.77;;
44434;SDS011;30138;20.964;105.830;2024-02-23T19:36:18;17.60;;;14.02;;
44434;SDS011;30138;20.964;105.830;2024-02-23T19:41:25;17.90;;;14.07;;
44434;SDS011;30138;20.964;105.830;2024-02-23T19:46:34;15.75;;;12.93;;
44434;SDS011;30138;20.964;105.830;2024-02-23T19:51:41;16.80;;;13.88;;
44434;SDS011;30138;20.964;105.830;2024-02-23T19:56:48;16.20;;;13.23;;
44434;SDS011;30138;20.964;105.830;2024-02-23T20:01:58;16.95;;;13.05;;
44434;SDS011;30138;20.964;105.830;2024-02-23T20:07:04;16.10;;;12.48;;
44434;SDS011;30138;20.964;105.830;2024-02-23T20:12:11;14.57;;;12.25;;
44434;SDS011;30138;20.964;105.830;2024-02-23T20:17:21;15.18;;;12.40;;
44434;SDS011;30138;20.964;105.830;2024-02-23T20:22:31;16.17;;;12.53;;
44434;SDS011;30138;20.964;105.830;2024-02-23T20:27:37;13.57;;;11.38;;
44434;SDS011;30138;20.964;105.830;2024-02-23T20:32:45;14.57;;;11.63;;
44434;SDS011;30138;20.964;105.830;2024-02-23T20:37:53;13.82;;;11.20;;
44434;SDS011;30138;20.964;105.830;2024-02-23T20:43:01;12.90;;;10.30;;
44434;SDS011;30138;20.964;105.830;2024-02-23T20:48:09;15.43;;;11.95;;
44434;SDS011;30138;20.964;105.830;2024-02-23T20:53:17;14.38;;;10.80;;
44434;SDS011;30138;20.964;105.830;2024-02-23T20:58:24;13.52;;;10.75;;
44434;SDS011;30138;20.964;105.830;2024-02-23T21:03:32;13.52;;;10.77;;
44434;SDS011;30138;20.964;105.830;2024-02-23T21:08:40;14.43;;;11.25;;
44434;SDS011;30138;20.964;105.830;2024-02-23T21:13:47;11.98;;;9.68;;
44434;SDS011;30138;20.964;105.830;2024-02-23T21:18:56;13.52;;;10.93;;
44434;SDS011;30138;20.964;105.830;2024-02-23T21:24:02;13.70;;;9.75;;
44434;SDS011;30138;20.964;105.830;2024-02-23T21:29:09;13.38;;;10.57;;
44434;SDS011;30138;20.964;105.830;2024-02-23T21:34:19;12.38;;;9.60;;
44434;SDS011;30138;20.964;105.830;2024-02-23T21:39:26;12.10;;;10.02;;
44434;SDS011;30138;20.964;105.830;2024-02-23T21:44:33;11.20;;;9.43;;
44434;SDS011;30138;20.964;105.830;2024-02-23T21:49:42;12.35;;;10.07;;
44434;SDS011;30138;20.964;105.830;2024-02-23T21:54:50;11.40;;;9.48;;
44434;SDS011;30138;20.964;105.830;2024-02-23T21:59:56;12.90;;;10.10;;
44434;SDS011;30138;20.964;105.830;2024-02-23T22:05:07;11.25;;;9.00;;
44434;SDS011;30138;20.964;105.830;2024-02-23T22:10:14;10.63;;;8.57;;
44434;SDS011;30138;20.964;105.830;2024-02-23T22:15:21;10.60;;;8.80;;
44434;SDS011;30138;20.964;105.830;2024-02-23T22:20:29;11.45;;;9.15;;
44434;SDS011;30138;20.964;105.830;2024-02-23T22:25:36;9.43;;;8.10;;
44434;SDS011;30138;20.964;105.830;2024-02-23T22:30:43;9.93;;;8.20;;
44434;SDS011;30138;20.964;105.830;2024-02-23T22:35:53;9.40;;;8.05;;
44434;SDS011;30138;20.964;105.830;2024-02-23T22:41:00;8.85;;;7.95;;
44434;SDS011;30138;20.964;105.830;2024-02-23T22:46:07;9.40;;;7.38;;
44434;SDS011;30138;20.964;105.830;2024-02-23T22:51:15;10.45;;;7.38;;
44434;SDS011;30138;20.964;105.830;2024-02-23T22:56:21;8.32;;;7.40;;
44434;SDS011;30138;20.964;105.830;2024-02-23T23:01:28;8.65;;;7.47;;
44434;SDS011;30138;20.964;105.830;2024-02-23T23:06:37;8.98;;;7.45;;
44434;SDS011;30138;20.964;105.830;2024-02-23T23:11:47;8.30;;;6.85;;
44434;SDS011;30138;20.964;105.830;2024-02-23T23:16:54;8.70;;;7.05;;
44434;SDS011;30138;20.964;105.830;2024-02-23T23:22:04;7.50;;;6.70;;
44434;SDS011;30138;20.964;105.830;2024-02-23T23:27:11;9.02;;;7.63;;
44434;SDS011;30138;20.964;105.830;2024-02-23T23:32:17;8.10;;;6.85;;
44434;SDS011;30138;20.964;105.830;2024-02-23T23:37:25;7.38;;;6.50;;
44434;SDS011;30138;20.964;105.830;2024-02-23T23:42:33;7.63;;;6.22;;
44434;SDS011;30138;20.964;105.830;2024-02-23T23:47:40;7.50;;;6.35;;
44434;SDS011;30138;20.964;105.830;2024-02-23T23:52:49;9.15;;;6.25;;
44434;SDS011;30138;20.964;105.830;2024-02-23T23:57:56;7.10;;;6.30;;
